Time;durP1;ratioP1;P1;durP2;ratioP2;P2;SDS_P1;SDS_P2;PMS_P1;PMS_P2;Temp;Humidity;BMP_temperature;BMP_pressure;BME280_temperature;BME280_humidity;BME280_pressure;Samples;Min_cycle;Max_cycle;Signal;HPM_P1;HPM_P2
2022/10/12 00:02:25;;;;;;;47.95;23.83;;;;;;;7.06;100.00;100635.00;1754995;78;21027;-89
2022/10/12 00:04:52;;;;;;;43.85;22.62;;;;;;;7.11;100.00;100636.25;1741989;79;21002;-93
2022/10/12 00:07:18;;;;;;;45.00;23.27;;;;;;;7.10;100.00;100637.12;1752007;82;21093;-93
2022/10/12 00:09:48;;;;;;;49.10;22.65;;;;;;;7.10;100.00;100641.05;1751649;82;21585;-92
2022/10/12 00:12:16;;;;;;;56.43;25.63;;;;;;;7.11;100.00;100642.80;1752046;82;22236;-90
2022/10/12 00:14:42;;;;;;;52.00;25.08;;;;;;;7.11;100.00;100642.80;1752128;82;21085;-91
2022/10/12 00:17:10;;;;;;;46.88;25.62;;;;;;;7.11;100.00;100640.17;1751492;82;21049;-90
2022/10/12 00:19:37;;;;;;;50.43;24.07;;;;;;;7.14;100.00;100642.73;1751801;82;21760;-90
2022/10/12 00:22:08;;;;;;;50.55;26.50;;;;;;;7.14;100.00;100639.67;1750586;82;21129;-90
2022/10/12 00:24:35;;;;;;;53.15;26.30;;;;;;;7.17;100.00;100637.44;1733768;82;22096;-91
2022/10/12 00:27:03;;;;;;;47.80;24.37;;;;;;;7.21;100.00;100639.14;1729845;81;21047;-92
2022/10/12 00:29:29;;;;;;;52.83;24.95;;;;;;;7.27;100.00;100639.05;1722208;82;21110;-90
2022/10/12 00:31:56;;;;;;;48.13;23.60;;;;;;;7.23;100.00;100646.53;1722518;83;21106;-91
2022/10/12 00:34:23;;;;;;;37.67;19.30;;;;;;;7.22;100.00;100643.47;1722133;83;21074;-91
2022/10/12 00:36:50;;;;;;;39.25;18.87;;;;;;;7.20;100.00;100642.66;1722198;82;21860;-91
2022/10/12 00:39:18;;;;;;;41.50;19.52;;;;;;;7.16;100.00;100648.83;1722113;83;21019;-91
2022/10/12 00:41:45;;;;;;;37.25;19.07;;;;;;;7.13;100.00;100651.05;1722445;83;21031;-91
2022/10/12 00:44:43;;;;;;;45.12;23.83;;;;;;;7.09;100.00;100651.97;1722088;82;20972;-91
2022/10/12 00:47:37;;;;;;;54.98;24.50;;;;;;;7.02;100.00;100650.33;1721799;82;21090;-92
2022/10/12 00:50:19;;;;;;;47.43;22.50;;;;;;;6.88;100.00;100650.52;1722040;82;21104;-91
2022/10/12 00:53:13;;;;;;;45.63;21.95;;;;;;;6.79;100.00;100646.72;1722081;83;21082;-91
2022/10/12 00:55:47;;;;;;;35.13;18.55;;;;;;;6.75;100.00;100646.33;1721645;83;21615;-92
2022/10/12 00:58:14;;;;;;;37.73;17.82;;;;;;;6.64;100.00;100640.36;1722527;83;21588;-90
2022/10/12 01:00:41;;;;;;;36.15;17.90;;;;;;;6.57;100.00;100651.80;1721771;83;21101;-90
2022/10/12 01:03:09;;;;;;;46.08;20.80;;;;;;;6.50;100.00;100647.94;1722135;83;21118;-92
2022/10/12 01:05:38;;;;;;;38.02;18.90;;;;;;;6.42;100.00;100647.18;1723436;83;20995;-90
2022/10/12 01:08:05;;;;;;;42.05;19.62;;;;;;;6.33;100.00;100651.63;1723826;83;21027;-91
2022/10/12 01:10:33;;;;;;;46.40;19.52;;;;;;;6.29;100.00;100648.20;1722253;83;21145;-91
2022/10/12 01:13:02;;;;;;;39.20;19.45;;;;;;;6.22;100.00;100643.92;1722181;82;21390;-91
2022/10/12 01:15:36;;;;;;;;;;;;;;;6.15;100.00;100644.88;1700984;83;21121;-88
2022/10/12 01:18:21;;;;;;;36.38;16.55;;;;;;;6.07;100.00;100648.44;1721934;83;20205;-89
2022/10/12 01:21:21;;;;;;;46.55;19.17;;;;;;;5.99;100.00;100652.86;1722228;83;21091;-91
2022/10/12 01:24:06;;;;;;;37.17;17.42;;;;;;;5.90;100.00;100642.46;1722301;83;21043;-92
2022/10/12 01:26:56;;;;;;;40.52;18.50;;;;;;;5.86;100.00;100655.13;1722122;83;21359;-89
2022/10/12 01:29:37;;;;;;;41.68;17.17;;;;;;;5.81;100.00;100655.62;1722802;83;21106;-91
2022/10/12 01:32:37;;;;;;;34.13;17.57;;;;;;;5.75;100.00;100658.27;1722045;82;21561;-92
2022/10/12 01:35:21;;;;;;;34.30;17.12;;;;;;;5.72;100.00;100660.92;1723004;83;21201;-91
2022/10/12 01:38:25;;;;;;;36.40;16.20;;;;;;;5.63;100.00;100664.03;1722719;83;21596;-88
2022/10/12 01:41:22;;;;;;;37.25;16.95;;;;;;;5.52;100.00;100656.75;1721948;83;21321;-88
2022/10/12 01:43:49;;;;;;;34.65;15.95;;;;;;;5.48;100.00;100665.48;1722328;83;22470;-90
2022/10/12 01:46:21;;;;;;;34.35;15.63;;;;;;;5.43;100.00;100668.57;1722331;83;21059;-89
2022/10/12 01:48:50;;;;;;;32.05;15.48;;;;;;;5.40;100.00;100668.13;1723758;83;21019;-88
2022/10/12 01:51:54;;;;;;;37.75;16.82;;;;;;;5.38;100.00;100671.63;1723641;82;21027;-87
2022/10/12 01:54:29;;;;;;;35.17;15.00;;;;;;;5.33;100.00;100668.19;1724406;82;20976;-89
2022/10/12 01:57:24;;;;;;;33.33;14.58;;;;;;;5.30;100.00;100669.53;1698237;83;21141;-90
2022/10/12 02:00:07;;;;;;;34.67;15.85;;;;;;;5.25;100.00;100667.81;1725807;78;21402;-88
2022/10/12 02:03:01;;;;;;;25.60;13.40;;;;;;;5.29;100.00;100676.91;1725467;82;21406;-87
2022/10/12 02:05:35;;;;;;;32.38;14.15;;;;;;;5.31;100.00;100676.47;1725181;82;21086;-88
2022/10/12 02:08:14;;;;;;;24.60;13.03;;;;;;;5.31;100.00;100672.55;1725380;78;21036;-91
2022/10/12 02:11:10;;;;;;;34.18;13.95;;;;;;;5.33;100.00;100677.33;1724474;82;21751;-90
2022/10/12 02:13:42;;;;;;;34.95;13.48;;;;;;;5.35;100.00;100676.89;1723744;82;21138;-87
2022/10/12 02:16:14;;;;;;;29.32;14.00;;;;;;;5.39;100.00;100680.77;1723077;83;21071;-89
2022/10/12 02:18:44;;;;;;;27.67;14.03;;;;;;;5.47;100.00;100684.63;1722186;83;21146;-89
2022/10/12 02:21:14;;;;;;;28.45;12.88;;;;;;;5.50;100.00;100693.77;1721953;83;21090;-92
2022/10/12 02:23:42;;;;;;;27.82;14.68;;;;;;;5.51;100.00;100695.48;1721596;82;21521;-88
2022/10/12 02:26:10;;;;;;;28.42;13.00;;;;;;;5.53;100.00;100695.04;1721148;83;21015;-89
2022/10/12 02:28:39;;;;;;;25.57;13.10;;;;;;;5.58;100.00;100703.70;1730382;82;21078;-88
2022/10/12 02:31:20;;;;;;;26.77;13.03;;;;;;;5.62;100.00;100700.20;1733034;82;21312;-89
2022/10/12 02:34:07;;;;;;;24.05;13.75;;;;;;;5.67;100.00;100702.33;1725560;82;21637;-88
2022/10/12 02:37:07;;;;;;;26.25;12.80;;;;;;;5.72;100.00;100694.90;1733674;82;21189;-90
2022/10/12 02:39:45;;;;;;;27.17;13.90;;;;;;;5.76;100.00;100692.25;1733314;82;21101;-91
2022/10/12 02:42:17;;;;;;;24.82;13.20;;;;;;;5.82;100.00;100695.23;1733388;82;21309;-93
2022/10/12 02:44:46;;;;;;;27.87;12.93;;;;;;;5.87;100.00;100692.17;1733394;82;21098;-90
2022/10/12 02:47:13;;;;;;;28.60;12.68;;;;;;;5.93;100.00;100697.77;1732926;82;21098;-90
2022/10/12 02:49:42;;;;;;;23.00;12.85;;;;;;;5.96;100.00;100699.07;1704393;82;21913;-90
2022/10/12 02:52:08;;;;;;;29.40;13.68;;;;;;;5.97;100.00;100695.14;1734081;82;21066;-92
2022/10/12 02:54:35;;;;;;;23.45;12.78;;;;;;;6.02;100.00;100699.88;1734804;82;21094;-92
2022/10/12 02:57:03;;;;;;;23.42;12.88;;;;;;;6.03;100.00;100701.64;1733749;82;21097;-89
2022/10/12 02:59:30;;;;;;;29.30;12.80;;;;;;;6.03;100.00;100702.94;1733099;82;20920;-91
2022/10/12 03:01:59;;;;;;;23.45;11.93;;;;;;;6.00;100.00;100704.26;1733110;82;21210;-91
2022/10/12 03:04:25;;;;;;;22.42;11.22;;;;;;;6.01;100.00;100708.63;1733290;82;21109;-89
2022/10/12 03:06:55;;;;;;;23.90;13.03;;;;;;;6.00;100.00;100705.56;1732750;82;21082;-91
2022/10/12 03:09:23;;;;;;;21.02;12.10;;;;;;;5.97;100.00;100712.14;1733665;82;21093;-91
2022/10/12 03:11:53;;;;;;;23.85;12.25;;;;;;;5.95;100.00;100703.44;1733180;82;21082;-91
2022/10/12 03:14:21;;;;;;;24.27;12.45;;;;;;;5.93;100.00;100712.15;1733251;82;21150;-91
2022/10/12 03:16:49;;;;;;;20.77;12.95;;;;;;;5.94;100.00;100712.59;1733024;82;21058;-93
2022/10/12 03:19:17;;;;;;;16.65;10.72;;;;;;;5.94;100.00;100706.95;1733098;82;21090;-91
2022/10/12 03:21:45;;;;;;;26.75;13.03;;;;;;;5.96;100.00;100710.42;1733451;82;21066;-91
2022/10/12 03:24:11;;;;;;;22.02;12.28;;;;;;;6.03;100.00;100717.33;1733386;82;21094;-90
2022/10/12 03:26:38;;;;;;;28.30;13.48;;;;;;;6.09;100.00;100720.31;1733131;82;21116;-91
2022/10/12 03:29:05;;;;;;;27.55;13.98;;;;;;;6.13;100.00;100722.47;1724501;82;21040;-90
2022/10/12 03:31:34;;;;;;;25.32;13.60;;;;;;;6.15;100.00;100724.19;1722011;83;21079;-93
2022/10/12 03:34:00;;;;;;;26.55;14.28;;;;;;;6.19;100.00;100724.59;1721796;83;21141;-92
2022/10/12 03:36:29;;;;;;;23.57;13.48;;;;;;;6.23;100.00;100728.02;1721990;83;21078;-92
2022/10/12 03:38:56;;;;;;;25.60;12.50;;;;;;;6.25;100.00;100722.34;1721799;83;21862;-90
2022/10/12 03:42:33;;;;;;;27.95;12.90;;;;;;;6.11;100.00;100726.84;1802411;78;28032;-66
2022/10/12 03:44:59;;;;;;;22.90;13.95;;;;;;;6.08;100.00;100733.83;1768781;79;21036;-65
2022/10/12 03:47:26;;;;;;;26.15;13.80;;;;;;;6.08;100.00;100728.60;1759983;81;21250;-66
2022/10/12 03:49:52;;;;;;;26.10;14.50;;;;;;;6.08;100.00;100731.22;1757906;81;20998;-66
2022/10/12 03:52:19;;;;;;;28.90;14.98;;;;;;;6.13;100.00;100728.56;1761132;81;21610;-66
2022/10/12 03:54:45;;;;;;;25.52;14.28;;;;;;;6.21;100.00;100736.33;1758563;81;21062;-66
2022/10/12 03:57:11;;;;;;;25.02;14.53;;;;;;;6.21;100.00;100729.38;1759366;81;21182;-66
2022/10/12 03:59:38;;;;;;;22.32;12.90;;;;;;;6.25;100.00;100733.66;1760325;81;21618;-66
2022/10/12 04:02:04;;;;;;;21.90;12.63;;;;;;;6.26;100.00;100731.49;1756735;81;21595;-66
2022/10/12 04:04:31;;;;;;;29.02;13.38;;;;;;;6.27;100.00;100732.35;1759614;81;21087;-67
2022/10/12 04:06:57;;;;;;;28.40;15.63;;;;;;;6.30;100.00;100732.31;1759200;81;21091;-66
2022/10/12 04:09:25;;;;;;;24.80;13.35;;;;;;;6.32;100.00;100736.23;1760510;81;21119;-66
2022/10/12 04:11:51;;;;;;;30.05;14.35;;;;;;;6.31;100.00;100737.98;1758051;81;21277;-66
2022/10/12 04:14:18;;;;;;;23.80;13.15;;;;;;;6.32;100.00;100737.09;1760123;81;21033;-66
2022/10/12 04:16:46;;;;;;;28.57;13.58;;;;;;;6.33;100.00;100742.77;1758673;81;21056;-66
2022/10/12 04:19:12;;;;;;;24.55;13.88;;;;;;;6.33;100.00;100747.11;1759763;81;21028;-66
2022/10/12 04:21:41;;;;;;;30.45;14.28;;;;;;;6.33;100.00;100744.08;1758267;81;21039;-66
2022/10/12 04:24:08;;;;;;;22.73;13.98;;;;;;;6.34;100.00;100747.10;1759656;81;21151;-66
2022/10/12 04:26:35;;;;;;;31.73;13.75;;;;;;;6.37;100.00;100748.38;1761663;80;21156;-65
2022/10/12 04:29:02;;;;;;;28.62;14.25;;;;;;;6.37;100.00;100748.38;1759815;81;21136;-67
2022/10/12 04:31:29;;;;;;;25.15;13.70;;;;;;;6.35;100.00;100761.05;1759611;81;21651;-67
2022/10/12 04:33:56;;;;;;;21.15;13.62;;;;;;;6.36;100.00;100758.42;1760652;81;21056;-66
2022/10/12 04:36:24;;;;;;;29.25;13.85;;;;;;;6.40;100.00;100760.13;1757500;81;21270;-66
2022/10/12 04:38:50;;;;;;;24.65;12.65;;;;;;;6.43;100.00;100764.02;1760085;81;21581;-66
2022/10/12 04:41:17;;;;;;;26.62;14.10;;;;;;;6.47;100.00;100760.95;1759257;81;21056;-66
2022/10/12 04:43:46;;;;;;;23.32;14.13;;;;;;;6.50;100.00;100764.83;1759120;81;21068;-66
2022/10/12 04:46:12;;;;;;;29.00;14.98;;;;;;;6.56;100.00;100769.15;1779330;79;21528;-67
2022/10/12 04:48:39;;;;;;;23.15;14.50;;;;;;;6.60;100.00;100761.66;1779387;79;21091;-66
2022/10/12 04:51:06;;;;;;;20.68;13.55;;;;;;;6.63;100.00;100770.37;1766176;80;21083;-65
2022/10/12 04:53:33;;;;;;;26.65;14.07;;;;;;;6.69;100.00;100777.27;1758405;79;21056;-66
2022/10/12 04:56:04;;;;;;;26.15;14.35;;;;;;;6.74;100.00;100772.87;1758365;80;21675;-67
2022/10/12 04:58:30;;;;;;;;;;;;;;;6.77;100.00;100768.05;1775941;80;21343;-66
2022/10/12 05:00:57;;;;;;;28.40;14.47;;;;;;;6.82;100.00;100780.63;1772485;80;21248;-67
2022/10/12 05:03:24;;;;;;;25.90;14.23;;;;;;;6.80;100.00;100774.09;1778724;79;21525;-67
2022/10/12 05:05:51;;;;;;;31.33;15.55;;;;;;;6.88;100.00;100776.20;1790456;80;21088;-67
2022/10/12 05:08:18;;;;;;;23.80;14.15;;;;;;;6.97;100.00;100791.36;1791794;80;21022;-67
2022/10/12 05:10:46;;;;;;;27.60;14.25;;;;;;;7.03;100.00;100786.06;1770734;79;21051;-67
2022/10/12 05:13:13;;;;;;;28.40;15.48;;;;;;;7.11;100.00;100792.09;1762554;80;21258;-66
2022/10/12 05:15:42;;;;;;;31.27;12.63;;;;;;;7.31;100.00;100793.98;1787935;80;21064;-67
2022/10/12 05:18:08;;;;;;;18.50;12.82;;;;;;;7.75;100.00;100798.19;1773767;80;21684;-67
2022/10/12 05:20:36;;;;;;;25.43;13.90;;;;;;;8.16;100.00;100796.23;1778860;79;21080;-67
2022/10/12 05:23:03;;;;;;;23.87;13.53;;;;;;;8.60;100.00;100795.97;1790011;80;21088;-68
2022/10/12 05:25:29;;;;;;;23.22;12.58;;;;;;;9.12;100.00;100795.85;1783427;80;21118;-66
2022/10/12 05:27:56;;;;;;;20.80;12.07;;;;;;;9.66;100.00;100798.17;1790498;80;21044;-67
2022/10/12 05:30:23;;;;;;;23.73;11.97;;;;;;;10.15;100.00;100799.67;1774420;80;21055;-67
2022/10/12 05:32:50;;;;;;;23.62;12.30;;;;;;;10.67;100.00;100795.75;1785346;80;21544;-66
2022/10/12 05:35:17;;;;;;;18.37;11.57;;;;;;;11.17;100.00;100802.28;1788838;80;21047;-67
2022/10/12 05:37:44;;;;;;;20.37;10.88;;;;;;;11.62;100.00;100805.76;1758862;80;21526;-67
2022/10/12 05:40:11;;;;;;;16.12;10.18;;;;;;;12.09;100.00;100810.91;1773894;79;21045;-66
2022/10/12 05:42:39;;;;;;;21.52;10.68;;;;;;;12.48;100.00;100812.28;1791386;80;21080;-66
2022/10/12 05:45:07;;;;;;;17.52;9.93;;;;;;;12.95;100.00;100810.63;1770262;79;21178;-67
2022/10/12 05:47:35;;;;;;;20.15;11.28;;;;;;;13.35;100.00;100813.62;1755953;81;21140;-67
2022/10/12 05:50:01;;;;;;;16.67;9.80;;;;;;;13.67;100.00;100807.56;1757343;81;21257;-68
2022/10/12 10:56:54;;;;;;;7.83;2.75;;;;;;;25.82;27.24;100848.92;1888573;76;22180;-67
2022/10/12 10:59:41;;;;;;;11.40;3.22;;;;;;;25.38;27.77;100859.12;1859691;77;22114;-67
2022/10/12 11:02:33;;;;;;;7.03;2.50;;;;;;;25.35;27.46;100846.40;1859425;77;21890;-67
2022/10/12 11:05:25;;;;;;;10.05;3.08;;;;;;;25.23;27.80;100849.18;1859297;77;20992;-66
2022/10/12 11:08:14;;;;;;;7.55;2.45;;;;;;;25.29;28.29;100850.00;1859386;77;22048;-66
2022/10/12 11:11:03;;;;;;;10.20;2.77;;;;;;;25.16;27.87;100854.72;1859239;77;21210;-67
2022/10/12 11:13:47;;;;;;;9.68;2.98;;;;;;;25.01;28.14;100853.38;1826356;77;21505;-66
2022/10/12 11:16:37;;;;;;;11.53;2.75;;;;;;;25.03;28.72;100855.41;1859325;77;21132;-67
2022/10/12 11:19:42;;;;;;;6.53;2.58;;;;;;;25.02;28.91;100852.38;1859433;77;20961;-66
2022/10/12 11:22:23;;;;;;;9.30;3.05;;;;;;;24.78;29.00;100856.20;1859227;77;21521;-66
2022/10/12 11:25:02;;;;;;;10.85;3.12;;;;;;;24.49;29.54;100854.13;1821535;78;21549;-66
2022/10/12 11:27:38;;;;;;;7.15;2.52;;;;;;;24.18;29.78;100853.59;1779630;80;21038;-65
2022/10/12 11:30:23;;;;;;;7.55;2.45;;;;;;;23.86;29.64;100855.27;1780847;80;21704;-66
2022/10/12 11:33:19;;;;;;;4.17;2.50;;;;;;;23.60;29.98;100847.95;1793242;80;21500;-67
2022/10/12 11:35:47;;;;;;;6.37;2.55;;;;;;;23.14;30.45;100844.86;1793402;80;21010;-66
2022/10/12 11:38:33;;;;;;;7.47;2.50;;;;;;;22.65;30.88;100854.50;1793469;80;21048;-66
2022/10/12 11:41:04;;;;;;;9.10;2.77;;;;;;;22.16;31.48;100857.68;1793117;79;21037;-67
2022/10/12 11:43:37;;;;;;;9.08;3.12;;;;;;;21.38;32.52;100863.67;1793071;80;22172;-66
2022/10/12 11:46:07;;;;;;;10.35;2.80;;;;;;;20.68;33.90;100864.07;1764302;80;21064;-66
2022/10/12 11:48:57;;;;;;;7.15;2.50;;;;;;;20.08;34.74;100865.80;1762144;81;21127;-66
2022/10/12 11:51:23;;;;;;;10.88;2.77;;;;;;;19.64;35.85;100866.80;1759779;81;21072;-67
2022/10/12 11:54:12;;;;;;;7.58;2.65;;;;;;;19.02;37.08;100867.92;1761679;81;21084;-67
2022/10/12 11:56:45;;;;;;;9.35;3.42;;;;;;;18.58;37.68;100874.08;1755184;80;21581;-65
2022/10/12 11:59:40;;;;;;;13.13;3.35;;;;;;;18.24;38.47;100864.50;1753409;81;21048;-65
2022/10/12 12:02:23;;;;;;;13.20;2.70;;;;;;;17.82;39.00;100872.64;1753506;81;21062;-66
2022/10/12 12:04:52;;;;;;;8.90;2.77;;;;;;;17.44;40.22;100874.70;1733858;81;21561;-66
2022/10/12 12:07:47;;;;;;;9.48;2.50;;;;;;;17.16;40.49;100876.16;1766712;81;21138;-66
2022/10/12 12:10:36;;;;;;;8.50;3.17;;;;;;;17.04;41.25;100879.48;1766395;81;21161;-66
2022/10/12 12:13:19;;;;;;;10.90;2.80;;;;;;;16.89;41.52;100874.50;1765755;81;21092;-65
2022/10/12 12:15:52;;;;;;;9.28;2.58;;;;;;;16.98;41.95;100872.21;1765851;81;21080;-67
2022/10/12 12:18:32;;;;;;;11.25;2.87;;;;;;;17.22;41.00;100872.34;1766091;81;21001;-68
2022/10/12 12:21:04;;;;;;;7.72;2.67;;;;;;;17.51;40.74;100868.13;1765980;81;21088;-67
2022/10/12 12:23:44;;;;;;;9.73;2.83;;;;;;;17.75;40.19;100861.44;1765949;81;21877;-67
2022/10/12 12:26:15;;;;;;;11.90;3.77;;;;;;;17.96;40.34;100862.55;1762978;81;21092;-67
2022/10/12 12:29:12;;;;;;;15.50;3.50;;;;;;;18.19;39.48;100857.25;1766161;81;21065;-66
2022/10/12 12:31:40;;;;;;;9.60;4.10;;;;;;;18.36;39.38;100858.97;1765957;81;21080;-66
2022/10/12 12:34:15;;;;;;;12.93;3.40;;;;;;;18.55;39.00;100862.27;1765835;81;21096;-66
2022/10/12 12:36:45;;;;;;;7.90;2.42;;;;;;;18.65;39.46;100863.42;1765753;81;21044;-67
2022/10/12 12:39:31;;;;;;;4.80;2.40;;;;;;;18.77;38.51;100859.67;1765637;80;21080;-66
2022/10/12 12:42:04;;;;;;;8.58;2.87;;;;;;;18.81;37.66;100852.73;1765994;81;21079;-66
2022/10/12 12:44:42;;;;;;;8.60;2.72;;;;;;;18.84;38.10;100849.90;1757702;81;21048;-67
2022/10/12 12:47:14;;;;;;;8.43;2.33;;;;;;;18.82;38.10;100858.95;1735697;82;21084;-67
2022/10/12 12:50:00;;;;;;;7.90;2.83;;;;;;;18.84;38.14;100859.69;1735324;82;21139;-68
2022/10/12 12:52:36;;;;;;;5.12;2.50;;;;;;;18.89;37.98;100860.30;1735554;81;21029;-66
2022/10/12 12:55:25;;;;;;;5.85;2.00;;;;;;;18.75;37.62;100856.20;1734953;82;21140;-66
2022/10/12 12:58:18;;;;;;;7.00;1.75;;;;;;;18.55;37.10;100864.08;1718405;82;21072;-67
2022/10/12 13:01:04;;;;;;;8.65;2.40;;;;;;;18.34;37.92;100859.52;1735054;82;21564;-68
2022/10/12 13:03:56;;;;;;;6.72;2.25;;;;;;;18.17;37.92;100859.14;1735060;82;21995;-65
2022/10/12 13:06:50;;;;;;;10.70;2.58;;;;;;;17.99;38.11;100861.92;1735326;82;21061;-65
2022/10/12 13:09:50;;;;;;;5.42;2.25;;;;;;;17.80;38.53;100855.38;1735425;82;22084;-65
2022/10/12 13:12:40;;;;;;;8.68;1.80;;;;;;;17.75;39.54;100856.59;1735566;82;21013;-66
2022/10/12 13:15:21;;;;;;;8.10;2.33;;;;;;;17.72;38.80;100857.62;1732542;82;21082;-67
2022/10/12 13:18:24;;;;;;;8.93;2.25;;;;;;;17.69;38.53;100861.80;1729316;82;21073;-65
2022/10/12 13:20:51;;;;;;;4.35;1.98;;;;;;;17.63;38.86;100862.12;1734962;82;21084;-67
2022/10/12 13:23:21;;;;;;;8.53;2.30;;;;;;;17.55;39.31;100855.01;1735493;82;21080;-67
2022/10/12 13:26:00;;;;;;;6.70;2.10;;;;;;;17.42;39.75;100857.97;1735033;81;21060;-67
2022/10/12 13:28:28;;;;;;;7.25;2.17;;;;;;;17.37;39.98;100852.41;1735224;82;21811;-66
2022/10/12 13:31:03;;;;;;;9.63;2.45;;;;;;;17.29;40.21;100860.42;1735546;82;21178;-68
2022/10/12 13:33:50;;;;;;;7.33;2.08;;;;;;;17.20;40.55;100861.77;1735302;82;21085;-67
2022/10/12 13:36:25;;;;;;;8.55;2.10;;;;;;;17.12;40.70;100869.31;1723975;82;21100;-66
2022/10/12 13:38:58;;;;;;;5.05;2.15;;;;;;;16.99;40.99;100867.27;1735392;82;21041;-66
2022/10/12 13:41:29;;;;;;;5.33;2.10;;;;;;;16.86;41.00;100874.16;1735226;81;21616;-67
2022/10/12 13:44:05;;;;;;;5.20;2.00;;;;;;;16.75;41.42;100871.18;1735212;82;21164;-65
2022/10/12 13:46:46;;;;;;;7.30;2.35;;;;;;;16.60;42.05;100873.27;1732039;82;21666;-67
2022/10/12 13:49:19;;;;;;;7.40;2.58;;;;;;;16.50;42.13;100871.08;1732031;82;21157;-67
2022/10/12 13:51:58;;;;;;;8.70;1.92;;;;;;;16.31;41.99;100872.91;1732155;82;21068;-67
2022/10/12 13:54:32;;;;;;;7.58;2.00;;;;;;;16.17;42.09;100866.94;1732200;82;21513;-66
2022/10/12 13:57:27;;;;;;;5.25;1.82;;;;;;;16.03;42.70;100871.59;1731687;82;21130;-66
2022/10/12 14:00:07;;;;;;;6.17;1.82;;;;;;;15.88;43.05;100868.36;1732070;82;21055;-65
2022/10/12 14:02:35;;;;;;;6.47;2.22;;;;;;;15.70;43.87;100870.92;1732135;82;21115;-67
2022/10/12 14:05:05;;;;;;;7.92;2.50;;;;;;;15.50;44.88;100865.64;1732311;82;21084;-68
2022/10/12 14:07:37;;;;;;;5.60;1.90;;;;;;;15.33;44.86;100870.87;1732339;82;21159;-66
2022/10/12 14:10:14;;;;;;;7.03;1.98;;;;;;;15.18;45.84;100870.59;1731401;82;21293;-69
2022/10/12 14:12:41;;;;;;;9.70;2.20;;;;;;;15.02;46.09;100873.53;1731952;82;21585;-67
2022/10/12 14:15:10;;;;;;;8.25;1.85;;;;;;;14.78;46.11;100871.02;1732533;82;21053;-66
2022/10/12 14:17:45;;;;;;;5.75;2.17;;;;;;;14.66;46.75;100872.88;1732413;82;20994;-67
2022/10/12 14:20:33;;;;;;;7.47;2.08;;;;;;;14.52;47.21;100872.56;1732552;82;21060;-68
2022/10/12 14:23:01;;;;;;;7.80;2.72;;;;;;;14.38;47.82;100876.64;1732345;82;21251;-68
2022/10/12 14:25:34;;;;;;;6.78;2.77;;;;;;;14.26;48.15;100873.14;1732291;82;21104;-68
2022/10/12 14:28:04;;;;;;;9.50;2.52;;;;;;;14.18;48.68;100880.09;1732507;82;21085;-66
2022/10/12 14:30:37;;;;;;;5.67;2.42;;;;;;;14.08;49.16;100876.53;1732577;82;22011;-67
2022/10/12 14:33:25;;;;;;;10.05;2.85;;;;;;;14.01;49.65;100877.23;1732191;82;21064;-65
2022/10/12 14:35:51;;;;;;;11.10;2.42;;;;;;;13.95;50.17;100875.70;1732026;82;21782;-67
2022/10/12 14:38:43;;;;;;;10.90;2.30;;;;;;;13.89;50.49;100870.63;1732377;82;21045;-67
2022/10/12 14:41:35;;;;;;;7.30;1.92;;;;;;;13.85;50.76;100880.50;1732178;82;21100;-67
2022/10/12 14:44:20;;;;;;;6.47;2.50;;;;;;;13.77;51.10;100877.73;1734776;81;21097;-68
2022/10/12 14:47:04;;;;;;;8.63;2.70;;;;;;;13.67;51.57;100881.20;1762117;81;21104;-67
2022/10/12 14:49:43;;;;;;;10.58;2.90;;;;;;;13.58;51.97;100882.41;1762050;81;21773;-66
2022/10/12 14:52:29;;;;;;;10.32;2.22;;;;;;;13.49;52.01;100884.07;1762208;81;21033;-67
2022/10/12 14:54:58;;;;;;;4.97;2.25;;;;;;;13.37;52.52;100887.18;1762000;81;21048;-68
2022/10/12 14:57:29;;;;;;;9.33;2.25;;;;;;;13.26;53.24;100887.98;1758152;79;21060;-67
2022/10/12 14:59:57;;;;;;;11.08;2.50;;;;;;;13.20;53.50;100889.95;1756628;81;21616;-66
2022/10/12 15:02:26;;;;;;;8.30;2.55;;;;;;;13.07;54.06;100897.91;1756632;81;21734;-66
2022/10/12 15:04:53;;;;;;;11.15;2.67;;;;;;;12.89;54.51;100894.58;1756276;81;21093;-66
2022/10/12 15:07:26;;;;;;;17.25;2.75;;;;;;;12.78;55.15;100903.72;1756593;81;21033;-65
2022/10/12 15:09:53;;;;;;;24.90;3.67;;;;;;;12.66;56.15;100898.86;1756499;81;21244;-67
2022/10/12 15:12:22;;;;;;;12.63;3.05;;;;;;;12.54;57.51;100900.12;1756724;81;21052;-65
2022/10/12 15:14:51;;;;;;;16.30;3.90;;;;;;;12.42;58.88;100899.66;1756922;81;21995;-67
2022/10/12 15:17:18;;;;;;;7.70;3.10;;;;;;;12.36;60.11;100898.09;1756702;81;21089;-67
2022/10/12 15:19:48;;;;;;;7.47;2.47;;;;;;;12.29;61.05;100904.48;1756467;81;21010;-65
2022/10/12 15:22:18;;;;;;;11.15;2.70;;;;;;;12.22;61.95;100905.13;1756582;81;21040;-66
2022/10/12 15:24:45;;;;;;;10.95;2.70;;;;;;;12.15;62.35;100908.88;1757009;81;21104;-67
2022/10/12 15:27:14;;;;;;;9.18;2.58;;;;;;;12.11;62.09;100912.05;1756194;81;21624;-67
2022/10/12 15:29:44;;;;;;;15.40;4.00;;;;;;;12.02;62.65;100911.48;1756456;81;21532;-68
2022/10/12 15:32:12;;;;;;;24.52;3.92;;;;;;;11.93;64.19;100917.89;1756405;81;21132;-67
2022/10/12 15:34:41;;;;;;;21.65;3.50;;;;;;;11.84;65.42;100910.22;1756653;81;21038;-67
2022/10/12 15:37:08;;;;;;;28.23;4.12;;;;;;;11.75;65.66;100910.03;1756231;81;21048;-66
2022/10/12 15:39:36;;;;;;;17.48;3.25;;;;;;;11.67;66.11;100912.05;1756281;81;21289;-65
2022/10/12 15:42:03;;;;;;;11.75;2.50;;;;;;;11.64;65.97;100906.41;1756388;81;21040;-65
2022/10/12 15:44:30;;;;;;;16.77;3.72;;;;;;;11.60;65.58;100910.03;1756709;81;21037;-66
2022/10/12 15:46:59;;;;;;;13.30;3.12;;;;;;;11.52;65.93;100907.59;1756453;81;21027;-66
2022/10/12 15:49:25;;;;;;;33.20;5.08;;;;;;;11.43;66.25;100916.23;1756858;81;21639;-65
2022/10/12 15:51:52;;;;;;;31.68;4.55;;;;;;;11.32;66.67;100920.50;1756481;81;21518;-67
2022/10/12 15:54:19;;;;;;;20.97;3.75;;;;;;;11.21;67.95;100923.42;1756771;81;22257;-66
2022/10/12 15:56:45;;;;;;;15.40;3.10;;;;;;;11.07;69.22;100924.25;1757782;81;21561;-67
2022/10/12 15:59:13;;;;;;;14.47;3.37;;;;;;;10.92;70.55;100926.81;1762398;81;21091;-66
2022/10/12 16:01:41;;;;;;;11.50;3.72;;;;;;;10.79;71.48;100934.19;1762166;81;21567;-66
2022/10/12 16:04:29;;;;;;;16.62;4.80;;;;;;;10.68;72.17;100934.44;1762111;81;21767;-68
2022/10/12 16:07:00;;;;;;;19.10;6.20;;;;;;;10.54;72.87;100931.74;1736827;82;21087;-66
2022/10/12 16:09:24;;;;;;;28.20;12.45;;;;;;;10.36;74.03;100936.98;1705858;82;21007;-67
2022/10/12 16:11:51;;;;;;;12.30;5.00;;;;;;;10.22;75.12;100938.13;1736863;82;21647;-69
2022/10/12 16:14:19;;;;;;;35.50;14.83;;;;;;;10.12;75.65;100938.36;1706270;84;21618;-66
2022/10/12 16:16:47;;;;;;;22.73;7.47;;;;;;;9.96;76.44;100939.14;1731162;82;21544;-66
2022/10/12 16:19:14;;;;;;;17.85;7.10;;;;;;;9.76;77.30;100941.76;1731014;82;21602;-66
2022/10/12 16:21:41;;;;;;;16.05;5.20;;;;;;;9.64;77.74;100945.51;1731069;82;21575;-66
2022/10/12 16:24:08;;;;;;;13.93;3.60;;;;;;;9.47;78.65;100941.47;1731384;82;21571;-66
2022/10/12 16:26:36;;;;;;;15.38;3.77;;;;;;;9.34;79.74;100944.35;1730767;82;21048;-66
2022/10/12 16:29:02;;;;;;;12.35;3.87;;;;;;;9.23;80.82;100943.68;1730895;82;21195;-67
2022/10/12 16:31:29;;;;;;;17.90;6.25;;;;;;;9.11;82.09;100951.77;1730901;82;21108;-66
2022/10/12 16:33:56;;;;;;;16.77;4.72;;;;;;;9.01;83.12;100954.55;1730961;82;21063;-66
2022/10/12 16:36:24;;;;;;;10.25;3.80;;;;;;;8.95;83.92;100953.79;1731079;82;21112;-67
2022/10/12 16:38:51;;;;;;;21.57;3.75;;;;;;;8.88;84.59;100953.48;1736965;81;21032;-66
2022/10/12 16:41:17;;;;;;;27.25;3.33;;;;;;;8.82;85.16;100958.41;1761214;81;22299;-68
2022/10/12 16:43:44;;;;;;;19.92;3.83;;;;;;;8.71;86.44;100959.02;1761589;81;21623;-67
2022/10/12 16:46:10;;;;;;;29.85;3.40;;;;;;;8.65;87.44;100957.80;1757921;81;21084;-66
2022/10/12 16:48:37;;;;;;;20.70;3.27;;;;;;;8.61;88.48;100956.54;1757879;81;21108;-66
2022/10/12 16:51:08;;;;;;;23.30;3.87;;;;;;;8.52;90.32;100963.25;1757964;81;21100;-67
2022/10/12 16:53:35;;;;;;;25.30;4.47;;;;;;;8.46;91.63;100962.47;1757951;81;21242;-67